Still River, Massachusetts
Current Conditions -  °F | °C
As of 9:52 PM on Thursday 25 Dec 2014 (Local Time) from KFIT Reporting Station
Clear Clear  
Wind Chill: 39°   Ceiling: Unl
Heat Index: 44°   Visibility: 10mi
Dew Point: 27°   Wind: 10mph
Humidity: 51%   Direction: 300°WNW
Pressure: 29.94"   Gusts: 24mph
Location:  42.49°N, 71.62°W
Report Text: KFIT 260252Z AUTO 30009G21KT 260V340 10SM CLR 07/M03 A2994 RMK AO2 PK WND 30029/0203 SLP139 T00671028 51034
Loading
Personal Weather Stations






























Interactive Weather Map New forecast layout! Learn more

10-Day Weather Forecast

Advertisements
Track Severe Weather on mobile